Terminal Aerodrome Forecast
Issued by NWS

Home | Current Version | Previous Version | Text Only | Print | Product List | Glossary On
Versions: 1 2 3 4 5 6 7 8 9 10 11 12 13 14 15 16
000
FTUS45 KGJT 201720
TAFEGE
TAF
KEGE 201720Z 2018/2118 26005KT P6SM VCSH SCT060 BKN100
     FM202000 25010KT P6SM VCTS SCT060CB BKN100
     FM210100 09007KT P6SM FEW060 SCT100
     FM210400 12003KT P6SM FEW200=

USA.gov is the U.S. government's official web portal to all federal, state and local government web resources and services.